createdAt,value
2018-12-13T00:01:07.995Z,0.25
2018-12-13T00:03:36.489Z,0.16
2018-12-13T00:06:05.074Z,0.02
2018-12-13T00:08:34.191Z,-0.03
2018-12-13T00:11:03.278Z,-0.03
2018-12-13T00:13:32.497Z,0.06
2018-12-13T00:16:01.099Z,-0.14
2018-12-13T00:18:29.668Z,-0.03
2018-12-13T00:20:58.257Z,-0.16
2018-12-13T00:23:27.606Z,-0.17
2018-12-13T00:25:56.105Z,-0.15
2018-12-13T00:28:24.627Z,-0.02
2018-12-13T00:30:53.117Z,-0.17
2018-12-13T00:33:21.657Z,-0.03
2018-12-13T00:35:50.125Z,0.05
2018-12-13T00:38:18.627Z,-0.04
2018-12-13T00:40:47.107Z,-0.19
2018-12-13T00:43:15.749Z,-0.16
2018-12-13T00:45:44.344Z,-0.18
2018-12-13T00:48:14.109Z,-0.31
2018-12-13T00:50:42.590Z,-0.12
2018-12-13T00:53:11.127Z,-0.08
2018-12-13T00:55:39.729Z,-0.01
2018-12-13T00:58:08.327Z,-0.29
2018-12-13T01:00:36.885Z,-0.12
2018-12-13T01:03:05.403Z,-0.32
2018-12-13T01:05:33.887Z,-0.28
2018-12-13T01:08:03.107Z,-0.24
2018-12-13T01:10:31.586Z,-0.23
2018-12-13T01:13:00.531Z,-0.26
2018-12-13T01:15:33.270Z,-0.29
2018-12-13T01:18:02.464Z,-0.22
2018-12-13T01:20:31.607Z,-0.23
2018-12-13T01:23:00.100Z,-0.16
2018-12-13T01:25:28.679Z,-0.30
2018-12-13T01:27:57.207Z,-0.31
2018-12-13T01:30:26.376Z,-0.31
2018-12-13T01:32:54.890Z,-0.26
2018-12-13T01:35:23.530Z,-0.35
2018-12-13T01:37:52.090Z,-0.47
2018-12-13T01:40:20.560Z,-0.54
2018-12-13T01:42:49.159Z,-0.43
2018-12-13T01:45:17.739Z,-0.20
2018-12-13T01:47:46.326Z,-0.35
2018-12-13T01:50:14.851Z,-0.44
2018-12-13T01:52:43.390Z,-0.49
2018-12-13T01:55:11.870Z,-0.48
2018-12-13T01:57:40.370Z,-0.32
2018-12-13T02:00:08.953Z,-0.47
2018-12-13T02:02:37.452Z,-0.48
2018-12-13T02:05:06.556Z,-0.48
2018-12-13T02:07:35.055Z,-0.52
2018-12-13T02:10:04.067Z,-0.48
2018-12-13T02:12:32.579Z,-0.48
2018-12-13T02:15:01.188Z,-0.47
2018-12-13T02:17:29.755Z,-0.51
2018-12-13T02:19:58.365Z,-0.41
2018-12-13T02:22:26.867Z,-0.35
2018-12-13T02:24:55.486Z,-0.54
2018-12-13T02:27:24.037Z,-0.50
2018-12-13T02:29:52.638Z,-0.49
2018-12-13T02:32:21.286Z,-0.44
2018-12-13T02:34:50.683Z,-0.50
2018-12-13T02:37:19.796Z,-0.51
2018-12-13T02:39:48.383Z,-0.54
2018-12-13T02:42:16.871Z,-0.55
2018-12-13T02:44:45.430Z,-0.65
2018-12-13T02:47:13.933Z,-0.69
2018-12-13T02:49:42.395Z,-0.56
2018-12-13T02:52:11.014Z,-0.57
2018-12-13T02:54:39.531Z,-0.81
2018-12-13T02:57:08.033Z,-0.73
2018-12-13T02:59:36.547Z,-0.75
2018-12-13T03:02:05.098Z,-0.79
2018-12-13T03:04:33.580Z,-0.87
2018-12-13T03:07:03.061Z,-0.84
2018-12-13T03:09:31.571Z,-0.79
2018-12-13T03:12:00.099Z,-0.72
2018-12-13T03:14:28.654Z,-0.88
2018-12-13T03:16:57.255Z,-0.78
2018-12-13T03:19:26.441Z,-0.64
2018-12-13T03:21:54.940Z,-0.93
2018-12-13T03:24:23.525Z,-0.89
2018-12-13T03:26:52.019Z,-1.04
2018-12-13T03:29:20.591Z,-1.06
2018-12-13T03:31:49.091Z,-0.98
2018-12-13T03:34:17.667Z,-0.94
2018-12-13T03:36:46.173Z,-0.85
2018-12-13T03:39:14.634Z,-0.88
2018-12-13T03:41:43.137Z,-0.89
2018-12-13T03:44:11.590Z,-1.04
2018-12-13T03:46:40.131Z,-1.09
2018-12-13T03:49:08.610Z,-1.11
2018-12-13T03:51:37.231Z,-1.17
2018-12-13T03:54:05.694Z,-1.19
2018-12-13T03:56:34.266Z,-1.15
2018-12-13T03:59:02.971Z,-1.02
2018-12-13T04:01:31.555Z,-0.85
2018-12-13T04:04:00.130Z,-0.88
2018-12-13T04:06:28.635Z,-0.92
2018-12-13T04:08:57.102Z,-0.96
2018-12-13T04:11:25.718Z,-0.89
2018-12-13T04:13:54.214Z,-1.01
2018-12-13T04:16:23.350Z,-0.89
2018-12-13T04:18:52.571Z,-1.08
2018-12-13T04:21:21.078Z,-1.06
2018-12-13T04:23:49.666Z,-1.09
2018-12-13T04:26:18.170Z,-1.19
2018-12-13T04:28:46.649Z,-1.18
2018-12-13T04:31:15.182Z,-0.96
2018-12-13T04:33:43.659Z,-1.12
2018-12-13T04:36:13.519Z,-1.24
2018-12-13T04:38:42.419Z,-1.12
2018-12-13T04:41:11.070Z,-1.17
2018-12-13T04:43:39.645Z,-1.16
2018-12-13T04:46:08.200Z,-1.20
2018-12-13T04:48:36.786Z,-1.14
2018-12-13T04:51:05.304Z,-1.12
2018-12-13T04:53:34.759Z,-1.14
2018-12-13T04:56:03.255Z,-1.02
2018-12-13T04:58:31.742Z,-1.03
2018-12-13T05:01:00.334Z,-1.06
2018-12-13T05:03:28.802Z,-1.03
2018-12-13T05:05:57.406Z,-1.09
2018-12-13T05:08:25.916Z,-1.28
2018-12-13T05:10:55.438Z,-1.31
2018-12-13T05:13:23.983Z,-1.37
2018-12-13T05:15:52.498Z,-1.35
2018-12-13T05:18:21.055Z,-1.39
2018-12-13T05:20:49.554Z,-1.43
2018-12-13T05:23:18.371Z,-1.43
2018-12-13T05:25:47.374Z,-1.33
2018-12-13T05:28:15.935Z,-1.30
2018-12-13T05:30:44.426Z,-1.24
2018-12-13T05:33:12.919Z,-1.30
2018-12-13T05:35:41.505Z,-1.14
2018-12-13T05:38:09.987Z,-1.15
2018-12-13T05:40:39.145Z,-1.18
2018-12-13T05:43:07.671Z,-1.19
2018-12-13T05:45:36.265Z,-1.13
2018-12-13T05:48:04.842Z,-1.34
2018-12-13T05:50:33.450Z,-1.26
2018-12-13T05:53:02.015Z,-1.23
2018-12-13T05:55:31.110Z,-1.39
2018-12-13T05:57:59.707Z,-1.28
2018-12-13T06:00:28.872Z,-1.23
2018-12-13T06:02:57.565Z,-1.25
2018-12-13T06:05:26.670Z,-1.23
2018-12-13T06:07:56.840Z,-1.29
2018-12-13T06:10:25.691Z,-1.20
2018-12-13T06:12:54.484Z,-1.22
2018-12-13T06:15:23.244Z,-1.24
2018-12-13T06:17:52.130Z,-1.21
2018-12-13T06:20:21.066Z,-1.35
2018-12-13T06:22:49.691Z,-1.26
2018-12-13T06:25:19.529Z,-1.36
2018-12-13T06:27:48.688Z,-1.25
2018-12-13T06:30:18.472Z,-1.28
2018-12-13T06:32:47.132Z,-1.26
2018-12-13T06:35:16.953Z,-1.25
2018-12-13T06:37:45.794Z,-1.31
2018-12-13T06:40:15.686Z,-1.26
2018-12-13T06:42:44.580Z,-1.23
2018-12-13T06:45:14.366Z,-1.23
2018-12-13T06:47:43.078Z,-1.39
2018-12-13T06:50:11.734Z,-1.35
2018-12-13T06:52:40.435Z,-1.38
2018-12-13T06:55:09.496Z,-1.45
2018-12-13T06:57:38.294Z,-1.38
2018-12-13T07:00:08.686Z,-1.29
2018-12-13T07:02:37.613Z,-1.30
2018-12-13T07:05:06.214Z,-1.36
2018-12-13T07:07:34.696Z,-1.30
2018-12-13T07:10:03.357Z,-1.17
2018-12-13T07:12:31.868Z,-1.15
2018-12-13T07:15:00.384Z,-1.21
2018-12-13T07:17:29.610Z,-1.22
2018-12-13T07:19:58.214Z,-1.08
2018-12-13T07:22:26.720Z,-1.28
2018-12-13T07:24:55.259Z,-1.22
2018-12-13T07:27:23.962Z,-1.13
2018-12-13T07:29:52.473Z,-1.31
2018-12-13T07:32:21.007Z,-1.28
2018-12-13T07:34:50.610Z,-1.03
2018-12-13T07:37:19.839Z,-1.13
2018-12-13T07:39:48.991Z,-0.95
2018-12-13T07:42:17.488Z,-1.23
2018-12-13T07:44:46.157Z,-0.93
2018-12-13T07:47:14.699Z,-0.76
2018-12-13T07:49:43.212Z,-0.87
2018-12-13T07:52:11.692Z,-0.82
2018-12-13T07:54:40.179Z,-1.04
2018-12-13T07:57:08.670Z,-1.03
2018-12-13T07:59:37.182Z,-0.96
2018-12-13T08:02:05.695Z,-0.86
2018-12-13T08:04:34.263Z,-0.86
2018-12-13T08:07:02.765Z,-1.01
2018-12-13T08:09:31.267Z,-0.69
2018-12-13T08:11:59.766Z,-0.82
2018-12-13T08:14:28.374Z,-0.65
2018-12-13T08:16:57.759Z,-0.65
2018-12-13T08:19:27.506Z,-0.68
2018-12-13T08:21:56.676Z,-0.82
2018-12-13T08:24:26.465Z,-0.73
2018-12-13T08:26:55.147Z,-0.79
2018-12-13T08:29:26.477Z,-0.87
2018-12-13T08:31:56.315Z,-0.82
2018-12-13T08:34:25.631Z,-0.67
2018-12-13T08:36:56.684Z,-0.61
2018-12-13T08:39:27.298Z,-0.69
2018-12-13T08:41:55.878Z,-0.55
2018-12-13T08:44:25.471Z,-0.14
2018-12-13T08:46:55.815Z,0.99
2018-12-13T08:49:25.041Z,1.46
2018-12-13T08:51:54.214Z,1.60
2018-12-13T08:54:24.063Z,1.96
2018-12-13T08:56:54.029Z,1.75
2018-12-13T08:59:23.282Z,1.54
2018-12-13T09:01:53.343Z,1.81
2018-12-13T09:04:23.162Z,1.73
2018-12-13T09:06:52.327Z,1.30
2018-12-13T09:09:21.734Z,1.13
2018-12-13T09:11:51.518Z,0.86
2018-12-13T09:14:21.330Z,1.95
2018-12-13T09:16:51.234Z,1.60
2018-12-13T09:19:20.652Z,2.07
2018-12-13T09:21:49.397Z,1.77
2018-12-13T09:24:18.035Z,1.67
2018-12-13T09:26:47.832Z,0.94
2018-12-13T09:29:16.454Z,0.97
2018-12-13T09:31:45.832Z,1.25
2018-12-13T09:34:14.579Z,1.05
2018-12-13T09:36:43.225Z,0.82
2018-12-13T09:39:12.949Z,1.03
2018-12-13T09:41:42.292Z,1.21
2018-12-13T09:44:16.906Z,1.43
2018-12-13T09:46:46.990Z,2.10
2018-12-13T09:49:17.798Z,2.35
2018-12-13T09:51:47.858Z,2.60
2018-12-13T09:54:17.110Z,2.03
2018-12-13T09:56:46.359Z,1.33
2018-12-13T09:59:16.157Z,1.28
2018-12-13T10:01:46.031Z,0.92
2018-12-13T10:04:15.206Z,0.79
2018-12-13T10:06:44.449Z,1.09
2018-12-13T10:09:14.207Z,1.12
2018-12-13T10:11:43.365Z,1.10
2018-12-13T10:14:12.011Z,0.75
2018-12-13T10:16:42.570Z,0.81
2018-12-13T10:19:12.443Z,0.55
2018-12-13T10:21:42.012Z,0.66
2018-12-13T10:24:11.463Z,0.88
2018-12-13T10:26:40.643Z,1.02
2018-12-13T10:29:11.884Z,1.28
2018-12-13T10:31:42.294Z,1.24
2018-12-13T10:34:11.965Z,1.29
2018-12-13T10:36:42.066Z,1.21
2018-12-13T10:39:12.527Z,1.04
2018-12-13T10:41:41.127Z,1.45
2018-12-13T10:44:11.682Z,1.16
2018-12-13T10:46:41.003Z,2.03
2018-12-13T10:49:10.681Z,1.78
2018-12-13T10:51:40.527Z,2.09
2018-12-13T10:54:10.988Z,1.58
2018-12-13T10:56:40.146Z,1.59
2018-12-13T10:59:10.486Z,1.75
2018-12-13T11:01:44.031Z,1.37
2018-12-13T11:04:14.375Z,0.95
2018-12-13T11:06:44.347Z,1.06
2018-12-13T11:09:13.612Z,1.62
2018-12-13T11:11:42.825Z,1.64
2018-12-13T11:14:12.618Z,1.37
2018-12-13T11:16:42.630Z,1.24
2018-12-13T11:19:11.867Z,1.59
2018-12-13T11:21:41.030Z,1.37
2018-12-13T11:24:09.634Z,1.19
2018-12-13T11:26:40.032Z,0.98
2018-12-13T11:29:19.819Z,1.16
2018-12-13T11:31:49.292Z,0.92
2018-12-13T11:34:19.750Z,1.35
2018-12-13T11:36:50.244Z,1.58
2018-12-13T11:39:21.379Z,1.21
2018-12-13T11:41:50.654Z,1.56
2018-12-13T11:44:21.319Z,1.48
2018-12-13T11:46:50.987Z,1.01
2018-12-13T11:49:20.306Z,1.26
2018-12-13T11:51:50.688Z,1.14
2018-12-13T11:54:30.869Z,0.88
2018-12-13T11:57:00.429Z,0.78
2018-12-13T11:59:29.696Z,0.76
2018-12-13T12:01:59.095Z,0.88
2018-12-13T12:04:29.006Z,0.93
2018-12-13T12:06:58.694Z,0.98
2018-12-13T12:09:27.322Z,1.11
2018-12-13T12:11:56.468Z,0.88
2018-12-13T12:14:26.404Z,0.85
2018-12-13T12:16:56.666Z,0.94
2018-12-13T12:19:26.163Z,0.67
2018-12-13T12:21:55.631Z,0.82
2018-12-13T12:24:25.371Z,0.87
2018-12-13T12:26:53.946Z,1.07
2018-12-13T12:29:24.528Z,0.98
2018-12-13T12:31:53.824Z,0.79
2018-12-13T12:34:23.690Z,0.68
2018-12-13T12:36:54.564Z,0.63
2018-12-13T12:39:24.170Z,0.48
2018-12-13T12:41:53.518Z,0.82
2018-12-13T12:44:22.079Z,0.42
2018-12-13T12:46:50.705Z,0.54
2018-12-13T12:49:19.985Z,0.48
2018-12-13T12:51:48.571Z,0.34
2018-12-13T12:54:17.948Z,0.20
2018-12-13T12:56:47.168Z,0.45
2018-12-13T12:59:16.389Z,0.52
2018-12-13T13:01:46.218Z,0.52
2018-12-13T13:04:14.793Z,0.36
2018-12-13T13:06:44.474Z,0.25
2018-12-13T13:09:13.721Z,0.44
2018-12-13T13:11:42.206Z,0.50
2018-12-13T13:14:12.762Z,0.58
2018-12-13T13:16:42.782Z,0.42
2018-12-13T13:19:12.618Z,0.36
2018-12-13T13:21:42.353Z,0.49
2018-12-13T13:24:10.906Z,0.28
2018-12-13T13:26:40.184Z,0.37
2018-12-13T13:29:09.427Z,0.37
2018-12-13T13:31:39.670Z,0.30
2018-12-13T13:34:09.218Z,0.23
2018-12-13T13:36:37.839Z,0.30
2018-12-13T13:39:09.108Z,0.44
2018-12-13T13:41:38.707Z,0.52
2018-12-13T13:44:08.756Z,0.35
2018-12-13T13:46:37.386Z,0.05
2018-12-13T13:49:06.099Z,0.13
2018-12-13T13:51:35.774Z,0.30
2018-12-13T13:54:05.008Z,0.42
2018-12-13T13:56:34.266Z,0.28
2018-12-13T13:59:03.566Z,0.38
2018-12-13T14:01:34.346Z,0.22
2018-12-13T14:04:03.534Z,0.16
2018-12-13T14:06:32.150Z,0.00
2018-12-13T14:09:00.782Z,0.25
2018-12-13T14:11:30.037Z,0.09
2018-12-13T14:14:00.210Z,0.08
2018-12-13T14:16:29.350Z,0.09
2018-12-13T14:18:57.917Z,0.06
2018-12-13T14:21:27.327Z,0.12
2018-12-13T14:23:56.446Z,0.06
2018-12-13T14:26:25.214Z,0.12
2018-12-13T14:28:55.858Z,-0.04
2018-12-13T14:31:24.471Z,0.06
2018-12-13T14:33:53.711Z,0.22
2018-12-13T14:36:24.986Z,0.09
2018-12-13T14:38:54.873Z,0.07
2018-12-13T14:41:25.394Z,0.02
2018-12-13T14:43:55.810Z,-0.02
2018-12-13T14:46:26.122Z,0.13
2018-12-13T14:48:55.913Z,0.17
2018-12-13T14:51:25.466Z,0.38
2018-12-13T14:53:54.733Z,0.22
2018-12-13T14:56:24.917Z,0.05
2018-12-13T14:58:56.010Z,-0.01
2018-12-13T15:01:25.116Z,0.11
2018-12-13T15:03:53.955Z,0.06
2018-12-13T15:06:23.136Z,0.14
2018-12-13T15:08:52.384Z,-0.08
2018-12-13T15:11:21.643Z,-0.02
2018-12-13T15:13:51.840Z,0.03
2018-12-13T15:16:20.456Z,-0.06
2018-12-13T15:18:50.273Z,-0.15
2018-12-13T15:21:20.274Z,-0.20
2018-12-13T15:23:50.447Z,-0.14
2018-12-13T15:26:20.393Z,-0.23
2018-12-13T15:28:50.313Z,-0.28
2018-12-13T15:31:19.600Z,-0.08
2018-12-13T15:33:48.403Z,-0.31
2018-12-13T15:36:18.319Z,-0.15
2018-12-13T15:38:47.500Z,-0.07
2018-12-13T15:41:17.382Z,-0.19
2018-12-13T15:43:46.086Z,-0.04
2018-12-13T15:46:16.247Z,-0.31
2018-12-13T15:48:46.082Z,-0.20
2018-12-13T15:51:16.227Z,-0.26
2018-12-13T15:53:46.647Z,-0.28
2018-12-13T15:56:15.731Z,-0.06
2018-12-13T15:58:45.727Z,0.14
2018-12-13T16:01:15.007Z,0.06
2018-12-13T16:03:43.697Z,0.02
2018-12-13T16:06:13.392Z,-0.02
2018-12-13T16:08:43.025Z,-0.20
2018-12-13T16:11:11.824Z,-0.01
2018-12-13T16:13:40.378Z,-0.10
2018-12-13T16:16:09.821Z,-0.15
2018-12-13T16:18:40.657Z,-0.10
2018-12-13T16:21:09.836Z,-0.05
2018-12-13T16:23:39.561Z,-0.17
2018-12-13T16:26:08.942Z,-0.03
2018-12-13T16:28:39.747Z,-0.05
2018-12-13T16:31:09.625Z,0.00
2018-12-13T16:33:39.597Z,-0.03
2018-12-13T16:36:08.978Z,0.14
2018-12-13T16:38:38.208Z,0.06
2018-12-13T16:41:07.640Z,0.00
2018-12-13T16:43:36.262Z,-0.05
2018-12-13T16:46:05.629Z,-0.04
2018-12-13T16:48:34.540Z,0.02
2018-12-13T16:51:03.389Z,-0.10
2018-12-13T16:53:32.386Z,-0.10
2018-12-13T16:56:02.238Z,-0.15
2018-12-13T16:58:31.097Z,0.05
2018-12-13T17:01:00.371Z,-0.12
2018-12-13T17:03:39.451Z,-0.22
2018-12-13T17:06:09.388Z,-0.12
2018-12-13T17:08:38.123Z,-0.24
2018-12-13T17:11:07.895Z,-0.30
2018-12-13T17:13:37.932Z,-0.32
2018-12-13T17:16:09.962Z,-0.26
2018-12-13T17:18:45.116Z,-0.23
2018-12-13T17:21:14.958Z,-0.18
2018-12-13T17:23:44.122Z,-0.30
2018-12-13T17:26:15.906Z,-0.13
2018-12-13T17:28:46.962Z,-0.21
2018-12-13T17:31:16.412Z,-0.18
2018-12-13T17:33:46.418Z,-0.18
2018-12-13T17:36:16.233Z,-0.07
2018-12-13T17:38:45.257Z,-0.14
2018-12-13T17:41:14.321Z,-0.20
2018-12-13T17:43:43.535Z,-0.13
2018-12-13T17:46:12.095Z,-0.21
2018-12-13T17:48:42.007Z,-0.18
2018-12-13T17:51:11.439Z,-0.20
2018-12-13T17:53:40.035Z,0.04
2018-12-13T17:56:09.512Z,-0.05
2018-12-13T17:58:40.182Z,-0.03
2018-12-13T18:01:09.675Z,-0.24
2018-12-13T18:03:39.016Z,-0.29
2018-12-13T18:06:09.084Z,-0.17
2018-12-13T18:08:39.449Z,-0.13
2018-12-13T18:11:09.100Z,-0.17
2018-12-13T18:13:39.601Z,-0.40
2018-12-13T18:16:09.719Z,-0.40
2018-12-13T18:18:40.200Z,-0.36
2018-12-13T18:21:08.976Z,-0.36
2018-12-13T18:23:38.162Z,-0.34
2018-12-13T18:26:08.129Z,-0.20
2018-12-13T18:28:37.283Z,-0.24
2018-12-13T18:31:07.161Z,-0.17
2018-12-13T18:33:37.033Z,-0.19
2018-12-13T18:36:07.674Z,-0.10
2018-12-13T18:38:36.361Z,-0.28
2018-12-13T18:41:05.747Z,-0.23
2018-12-13T18:43:35.794Z,-0.32
2018-12-13T18:46:04.987Z,-0.14
2018-12-13T18:48:35.042Z,-0.16
2018-12-13T18:51:03.958Z,-0.22
2018-12-13T18:53:33.246Z,-0.27
2018-12-13T18:56:01.863Z,-0.32
2018-12-13T18:58:32.944Z,-0.31
2018-12-13T19:01:02.506Z,-0.18
2018-12-13T19:03:31.690Z,-0.23
2018-12-13T19:06:01.097Z,-0.20
2018-12-13T19:08:31.438Z,-0.18
2018-12-13T19:11:00.775Z,-0.15
2018-12-13T19:13:30.826Z,-0.25
2018-12-13T19:16:00.497Z,-0.14
2018-12-13T19:18:31.995Z,-0.12
2018-12-13T19:21:01.342Z,-0.18
2018-12-13T19:23:30.708Z,-0.22
2018-12-13T19:25:59.288Z,-0.22
2018-12-13T19:28:28.555Z,-0.29
2018-12-13T19:30:57.683Z,-0.11
2018-12-13T19:36:17.609Z,-0.24
2018-12-13T19:38:47.054Z,-0.09
2018-12-13T19:41:16.220Z,-0.24
2018-12-13T19:43:45.506Z,-0.24
2018-12-13T19:46:15.082Z,-0.14
2018-12-13T19:48:44.891Z,-0.08
2018-12-13T19:51:14.619Z,-0.14
2018-12-13T19:53:43.670Z,-0.16
2018-12-13T19:56:12.808Z,-0.12
2018-12-13T19:58:42.517Z,-0.19
2018-12-13T20:01:11.122Z,-0.18
2018-12-13T20:03:41.478Z,-0.04
2018-12-13T20:06:10.035Z,-0.06
2018-12-13T20:08:39.860Z,-0.28
2018-12-13T20:11:08.646Z,-0.24
2018-12-13T20:13:39.072Z,-0.22
2018-12-13T20:16:09.566Z,-0.32
2018-12-13T20:18:38.718Z,-0.28
2018-12-13T20:21:07.815Z,-0.41
2018-12-13T20:23:37.463Z,-0.46
2018-12-13T20:26:06.787Z,-0.39
2018-12-13T20:28:36.858Z,-0.32
2018-12-13T20:31:06.709Z,-0.27
2018-12-13T20:33:36.956Z,-0.36
2018-12-13T20:36:07.673Z,-0.19
2018-12-13T20:38:37.009Z,-0.30
2018-12-13T20:41:06.973Z,-0.35
2018-12-13T20:43:36.141Z,-0.25
2018-12-13T20:46:05.462Z,-0.18
2018-12-13T20:48:34.971Z,-0.33
2018-12-13T20:51:03.529Z,-0.46
2018-12-13T20:53:32.856Z,-0.31
2018-12-13T20:56:02.624Z,-0.28
2018-12-13T20:58:32.012Z,-0.30
2018-12-13T21:01:01.531Z,-0.32
2018-12-13T21:03:30.892Z,-0.52
2018-12-13T21:06:00.776Z,-0.48
2018-12-13T21:08:32.240Z,-0.58
2018-12-13T21:11:07.207Z,-0.50
2018-12-13T21:13:33.408Z,-0.41
2018-12-13T21:16:03.921Z,-0.38
2018-12-13T21:18:32.706Z,-0.48
2018-12-13T21:21:02.989Z,-0.48
2018-12-13T21:23:33.430Z,-0.47
2018-12-13T21:26:03.688Z,-0.37
2018-12-13T21:28:32.386Z,-0.55
2018-12-13T21:31:01.410Z,-0.43
2018-12-13T21:33:30.682Z,-0.64
2018-12-13T21:36:00.118Z,-0.56
2018-12-13T21:38:30.323Z,-0.66
2018-12-13T21:41:01.064Z,-0.63
2018-12-13T21:43:30.518Z,-0.63
2018-12-13T21:45:59.843Z,-0.69
2018-12-13T21:48:28.398Z,-0.71
2018-12-13T21:50:58.252Z,-0.64
2018-12-13T21:53:26.834Z,-0.65
2018-12-13T21:55:55.414Z,-0.59
2018-12-13T21:58:24.702Z,-0.75
2018-12-13T22:00:53.319Z,-0.59
2018-12-13T22:03:22.570Z,-0.61
2018-12-13T22:05:52.310Z,-0.50
2018-12-13T22:08:21.876Z,-0.64
2018-12-13T22:10:51.239Z,-0.52
2018-12-13T22:13:20.861Z,-0.53
2018-12-13T22:15:50.516Z,-0.62
2018-12-13T22:18:19.760Z,-0.66
2018-12-13T22:20:48.313Z,-0.65
2018-12-13T22:23:18.935Z,-0.43
2018-12-13T22:25:47.586Z,-0.48
2018-12-13T22:28:16.159Z,-0.53
2018-12-13T22:30:44.799Z,-0.52
2018-12-13T22:33:14.347Z,-0.50
2018-12-13T22:35:43.234Z,-0.55
2018-12-13T22:38:13.469Z,-0.57
2018-12-13T22:40:43.285Z,-0.55
2018-12-13T22:43:12.349Z,-0.52
2018-12-13T22:45:41.365Z,-0.45
2018-12-13T22:48:11.890Z,-0.76
2018-12-13T22:50:40.645Z,-0.63
2018-12-13T22:53:10.496Z,-0.81
2018-12-13T22:55:39.402Z,-0.73
2018-12-13T22:58:07.935Z,-0.63
2018-12-13T23:00:37.214Z,-0.66
2018-12-13T23:03:06.450Z,-0.72
2018-12-13T23:05:35.605Z,-0.73
2018-12-13T23:08:04.600Z,-0.57
2018-12-13T23:10:33.179Z,-0.79
2018-12-13T23:13:01.879Z,-0.76
2018-12-13T23:15:30.934Z,-0.87
2018-12-13T23:17:59.465Z,-0.83
2018-12-13T23:20:27.989Z,-0.82
2018-12-13T23:22:56.577Z,-0.56
2018-12-13T23:25:25.427Z,-0.63
2018-12-13T23:27:54.050Z,-0.62
2018-12-13T23:30:22.562Z,-0.71
2018-12-13T23:32:51.131Z,-0.63
2018-12-13T23:35:19.850Z,-0.75
2018-12-13T23:37:48.394Z,-0.76
2018-12-13T23:40:16.976Z,-0.75
2018-12-13T23:42:46.104Z,-0.76
2018-12-13T23:45:14.710Z,-0.68
2018-12-13T23:47:43.685Z,-0.73
2018-12-13T23:50:12.430Z,-0.59
2018-12-13T23:52:40.977Z,-0.75
2018-12-13T23:55:10.702Z,-0.74
2018-12-13T23:57:39.268Z,-0.75
